Time;durP1;ratioP1;P1;durP2;ratioP2;P2;SDS_P1;SDS_P2;PMS_P1;PMS_P2;Temp;Humidity;BMP_temperature;BMP_pressure;BME280_temperature;BME280_humidity;BME280_pressure;Samples;Min_cycle;Max_cycle;Signal;HPM_P1;HPM_P2
2022/04/14 00:00:10;;;;;;;0.10;0.10;;;13.10;92.50;;;;;;5050526;28;20202;-59
2022/04/14 00:02:36;;;;;;;0.10;0.10;;;13.10;92.90;;;;;;5059301;28;20577;-58
2022/04/14 00:05:01;;;;;;;0.10;0.10;;;13.10;94.10;;;;;;5048218;28;20649;-58
2022/04/14 00:07:27;;;;;;;0.10;0.10;;;13.10;94.80;;;;;;5062880;28;20259;-58
2022/04/14 00:09:52;;;;;;;0.10;0.10;;;13.00;94.80;;;;;;5062473;28;20189;-58
2022/04/14 00:12:18;;;;;;;0.10;0.10;;;12.90;94.50;;;;;;5051616;28;20194;-58
2022/04/14 00:14:43;;;;;;;0.10;0.10;;;12.90;94.60;;;;;;5056951;28;20201;-60
2022/04/14 00:17:09;;;;;;;0.10;0.10;;;12.90;97.60;;;;;;5056835;28;20206;-58
2022/04/14 00:19:34;;;;;;;0.10;0.10;;;12.90;97.80;;;;;;5060775;28;20208;-57
2022/04/14 00:22:00;;;;;;;0.10;0.10;;;12.90;97.50;;;;;;5046362;28;20906;-57
2022/04/14 00:24:25;;;;;;;0.10;0.10;;;12.80;98.20;;;;;;5057866;28;20251;-58
2022/04/14 00:26:51;;;;;;;0.00;0.00;;;12.70;99.10;;;;;;5057940;28;20206;-58
2022/04/14 00:29:16;;;;;;;0.10;0.10;;;12.70;99.90;;;;;;5061360;28;20653;-59
2022/04/14 00:31:42;;;;;;;0.10;0.10;;;12.70;98.90;;;;;;5058738;28;20285;-59
2022/04/14 00:34:07;;;;;;;0.10;0.10;;;12.60;98.20;;;;;;5061130;28;20197;-59
2022/04/14 00:36:33;;;;;;;0.10;0.10;;;12.50;97.90;;;;;;5054904;28;20637;-59
2022/04/14 00:38:59;;;;;;;0.20;0.20;;;12.50;97.60;;;;;;5062915;28;20205;-59
2022/04/14 00:41:24;;;;;;;0.10;0.10;;;12.40;97.40;;;;;;5059669;28;20267;-58
2022/04/14 00:43:52;;;;;;;0.10;0.10;;;12.40;98.10;;;;;;5060030;28;20206;-58
2022/04/14 00:46:18;;;;;;;0.10;0.10;;;12.40;98.40;;;;;;5059744;28;20306;-58
2022/04/14 00:48:44;;;;;;;0.10;0.10;;;12.40;97.90;;;;;;5055950;28;20187;-58
2022/04/14 00:51:10;;;;;;;0.10;0.10;;;12.40;99.20;;;;;;5052649;28;20211;-58
2022/04/14 00:53:37;;;;;;;0.10;0.10;;;12.40;99.90;;;;;;5054692;28;20227;-58
2022/04/14 00:56:04;;;;;;;0.10;0.10;;;12.30;99.00;;;;;;5052837;28;20297;-58
2022/04/14 00:58:29;;;;;;;0.10;0.10;;;12.30;99.50;;;;;;5063582;28;20194;-58
2022/04/14 01:00:55;;;;;;;0.10;0.10;;;12.20;98.90;;;;;;5054505;28;20205;-59
2022/04/14 01:03:22;;;;;;;0.10;0.10;;;12.20;98.70;;;;;;5060667;28;20347;-58
2022/04/14 01:05:48;;;;;;;0.10;0.10;;;12.20;99.30;;;;;;5056711;28;20208;-58
2022/04/14 01:08:17;;;;;;;0.23;0.23;;;12.20;99.90;;;;;;5059621;28;20179;-58
2022/04/14 01:10:47;;;;;;;0.20;0.20;;;12.20;99.90;;;;;;5062457;28;20639;-58
2022/04/14 01:13:13;;;;;;;0.30;0.30;;;12.20;99.90;;;;;;5054937;28;20643;-59
2022/04/14 01:15:39;;;;;;;0.10;0.10;;;12.10;99.90;;;;;;5062592;28;20512;-58
2022/04/14 01:18:05;;;;;;;0.10;0.10;;;12.10;99.90;;;;;;5062735;28;20303;-59
2022/04/14 01:20:31;;;;;;;0.03;0.03;;;12.00;99.90;;;;;;5062802;28;20960;-60
2022/04/14 01:22:59;;;;;;;0.10;0.10;;;12.00;99.90;;;;;;5049046;28;20214;-60
2022/04/14 01:25:26;;;;;;;0.10;0.10;;;12.00;99.90;;;;;;5055046;28;20236;-60
2022/04/14 01:27:52;;;;;;;0.13;0.13;;;12.00;99.90;;;;;;5051542;28;20190;-60
2022/04/14 01:30:17;;;;;;;0.10;0.10;;;12.00;99.90;;;;;;5050844;28;20190;-59
2022/04/14 01:32:43;;;;;;;0.57;0.57;;;11.90;99.90;;;;;;5067691;28;20178;-59
2022/04/14 01:35:08;;;;;;;0.10;0.10;;;11.90;99.90;;;;;;5058690;28;20190;-59
2022/04/14 01:37:34;;;;;;;0.20;0.20;;;11.80;99.90;;;;;;5056806;28;20277;-60
2022/04/14 01:40:00;;;;;;;2.80;2.70;;;11.80;99.90;;;;;;5056915;28;20579;-60
2022/04/14 01:42:25;;;;;;;0.10;0.10;;;11.80;99.90;;;;;;5060761;28;20194;-59
2022/04/14 01:44:51;;;;;;;0.10;0.10;;;11.70;99.90;;;;;;5056788;28;20206;-58
2022/04/14 01:47:16;;;;;;;0.30;0.30;;;11.70;99.90;;;;;;5046817;28;20199;-59
2022/04/14 01:49:42;;;;;;;0.10;0.10;;;11.70;99.90;;;;;;5055621;28;20194;-58
2022/04/14 01:52:07;;;;;;;0.10;0.10;;;11.70;99.90;;;;;;5064970;28;20655;-58
2022/04/14 01:54:33;;;;;;;0.10;0.10;;;11.70;99.90;;;;;;5067431;28;20179;-58
2022/04/14 01:56:58;;;;;;;0.10;0.10;;;11.70;99.90;;;;;;5047677;28;20191;-58
2022/04/14 01:59:24;;;;;;;0.10;0.10;;;11.60;99.90;;;;;;5061000;28;20277;-58
2022/04/14 02:01:49;;;;;;;0.10;0.10;;;11.60;99.90;;;;;;5060115;28;20201;-58
2022/04/14 02:04:15;;;;;;;0.10;0.10;;;11.60;99.90;;;;;;5060324;28;20214;-58
2022/04/14 02:06:41;;;;;;;0.10;0.10;;;11.50;99.90;;;;;;5064539;28;20612;-58
2022/04/14 02:09:06;;;;;;;0.10;0.10;;;11.50;99.90;;;;;;5054145;28;20243;-58
2022/04/14 02:11:32;;;;;;;0.10;0.10;;;11.50;99.90;;;;;;5059622;28;20198;-58
2022/04/14 02:13:58;;;;;;;0.10;0.10;;;11.50;99.90;;;;;;5064055;28;20695;-59
2022/04/14 02:16:23;;;;;;;0.10;0.10;;;11.50;99.90;;;;;;5054313;28;20216;-59
2022/04/14 02:18:49;;;;;;;0.83;0.83;;;11.50;99.90;;;;;;5047766;28;20213;-59
2022/04/14 02:21:14;;;;;;;0.10;0.10;;;11.50;99.90;;;;;;5048147;28;20194;-58
2022/04/14 02:23:40;;;;;;;1.17;1.17;;;11.50;99.90;;;;;;5057328;28;20209;-58
2022/04/14 02:26:05;;;;;;;0.10;0.10;;;11.40;99.90;;;;;;5064790;28;20207;-58
2022/04/14 02:28:31;;;;;;;0.10;0.10;;;11.40;99.90;;;;;;5053095;28;20186;-59
2022/04/14 02:30:56;;;;;;;10.40;5.93;;;11.40;99.90;;;;;;5056158;28;20205;-59
2022/04/14 02:33:22;;;;;;;0.10;0.10;;;11.40;99.90;;;;;;5065135;28;20499;-58
2022/04/14 02:35:47;;;;;;;0.10;0.10;;;11.40;99.90;;;;;;5055190;28;20243;-59
2022/04/14 02:38:13;;;;;;;0.10;0.10;;;11.40;99.90;;;;;;5047988;28;20229;-59
2022/04/14 02:40:38;;;;;;;0.10;0.10;;;11.40;99.90;;;;;;5057471;28;20205;-59
2022/04/14 02:43:12;;;;;;;5.03;2.47;;;11.50;99.90;;;;;;5047970;28;20211;-59
2022/04/14 02:45:38;;;;;;;4.67;4.37;;;11.50;99.90;;;;;;5049123;28;20213;-58
2022/04/14 02:48:03;;;;;;;1.50;1.47;;;11.50;99.90;;;;;;5064803;28;20237;-59
2022/04/14 02:50:29;;;;;;;0.10;0.10;;;11.50;99.90;;;;;;5051797;28;20216;-59
2022/04/14 02:52:54;;;;;;;0.20;0.20;;;11.50;99.90;;;;;;5054403;28;20696;-59
2022/04/14 02:55:20;;;;;;;0.10;0.10;;;11.50;99.90;;;;;;5046471;28;20231;-58
2022/04/14 02:57:47;;;;;;;0.10;0.10;;;11.50;99.90;;;;;;5054871;28;20703;-59
2022/04/14 03:00:13;;;;;;;0.20;0.20;;;11.40;99.90;;;;;;5050306;28;20194;-59
2022/04/14 03:02:39;;;;;;;0.20;0.20;;;11.40;99.90;;;;;;5063703;28;20273;-59
2022/04/14 03:05:05;;;;;;;3.80;3.53;;;11.30;99.90;;;;;;5066002;28;20243;-58
2022/04/14 03:07:31;;;;;;;1.20;0.93;;;11.30;99.90;;;;;;5064139;28;20209;-59
2022/04/14 03:09:57;;;;;;;1.63;1.00;;;11.30;99.90;;;;;;5050249;28;20175;-58
2022/04/14 03:12:22;;;;;;;4.07;3.70;;;11.30;99.90;;;;;;5051043;28;20267;-58
2022/04/14 03:14:48;;;;;;;2.13;2.03;;;11.30;99.90;;;;;;5049541;28;20193;-57
2022/04/14 03:17:14;;;;;;;0.10;0.10;;;11.30;99.90;;;;;;5051349;28;20200;-57
2022/04/14 03:19:40;;;;;;;5.20;2.20;;;11.30;99.90;;;;;;5054827;28;20213;-57
2022/04/14 03:22:05;;;;;;;3.40;3.30;;;11.20;99.90;;;;;;5054660;28;20194;-57
2022/04/14 03:24:31;;;;;;;0.10;0.10;;;11.20;99.90;;;;;;5059155;28;20206;-58
2022/04/14 03:26:57;;;;;;;0.50;0.50;;;11.20;99.90;;;;;;5059370;28;20263;-58
2022/04/14 03:29:23;;;;;;;0.63;0.63;;;11.20;99.90;;;;;;5049797;28;20190;-58
2022/04/14 03:31:48;;;;;;;0.10;0.10;;;11.20;99.90;;;;;;5051316;28;20233;-57
2022/04/14 03:34:14;;;;;;;0.40;0.40;;;11.20;99.90;;;;;;5055718;28;20194;-56
2022/04/14 03:36:39;;;;;;;0.20;0.20;;;11.20;99.90;;;;;;5056226;28;20182;-57
2022/04/14 03:39:05;;;;;;;0.20;0.20;;;11.20;99.90;;;;;;5060901;28;20203;-58
2022/04/14 03:41:30;;;;;;;0.57;0.57;;;11.20;99.90;;;;;;5064502;28;20186;-59
2022/04/14 03:43:57;;;;;;;0.10;0.10;;;11.20;99.90;;;;;;5053741;28;20217;-59
2022/04/14 03:46:22;;;;;;;0.40;0.40;;;11.10;99.90;;;;;;5065556;28;20272;-59
2022/04/14 03:48:48;;;;;;;0.13;0.13;;;11.10;99.90;;;;;;5059798;28;20687;-59
2022/04/14 03:51:16;;;;;;;0.40;0.40;;;11.10;99.90;;;;;;5052192;28;20618;-60
2022/04/14 03:53:43;;;;;;;0.10;0.10;;;11.10;99.90;;;;;;5048809;28;20202;-59
2022/04/14 03:56:09;;;;;;;1.13;1.13;;;11.10;99.90;;;;;;5051579;28;20190;-59
2022/04/14 03:58:34;;;;;;;1.87;1.87;;;11.10;99.90;;;;;;5061737;28;20202;-60
2022/04/14 04:01:00;;;;;;;0.20;0.20;;;11.10;99.90;;;;;;5057163;28;20239;-60
2022/04/14 04:03:25;;;;;;;1.10;1.03;;;11.10;99.90;;;;;;5057033;28;20226;-60
2022/04/14 04:05:51;;;;;;;0.10;0.10;;;11.10;99.90;;;;;;5064742;28;20214;-60
2022/04/14 04:08:18;;;;;;;0.10;0.10;;;11.10;99.90;;;;;;5059370;28;20252;-59
2022/04/14 04:10:44;;;;;;;0.10;0.10;;;11.10;99.90;;;;;;5053004;28;20227;-59
2022/04/14 04:13:09;;;;;;;0.10;0.10;;;11.10;99.90;;;;;;5055279;28;20718;-59
2022/04/14 04:15:35;;;;;;;2.20;2.13;;;11.10;99.90;;;;;;5051299;28;20229;-59
2022/04/14 04:18:01;;;;;;;2.53;2.43;;;11.10;99.90;;;;;;5043654;28;20270;-59
2022/04/14 04:20:26;;;;;;;1.87;1.77;;;11.10;99.90;;;;;;5061562;28;20280;-59
2022/04/14 04:22:52;;;;;;;0.30;0.30;;;11.10;99.90;;;;;;5061706;28;20289;-59
2022/04/14 04:25:17;;;;;;;0.73;0.73;;;11.20;99.90;;;;;;5056386;28;20210;-59
2022/04/14 04:27:43;;;;;;;0.13;0.13;;;11.10;99.90;;;;;;5062108;28;20216;-59
2022/04/14 04:30:09;;;;;;;0.10;0.10;;;11.10;99.90;;;;;;5064710;28;20272;-59
2022/04/14 04:32:35;;;;;;;0.10;0.10;;;11.10;99.90;;;;;;5061075;28;20197;-59
2022/04/14 04:35:06;;;;;;;0.10;0.10;;;11.10;99.90;;;;;;5055959;28;20198;-58
2022/04/14 04:37:32;;;;;;;0.10;0.10;;;11.20;99.90;;;;;;5053860;28;20666;-57
2022/04/14 04:39:57;;;;;;;0.10;0.10;;;11.20;99.90;;;;;;5049189;28;20195;-58
2022/04/14 04:42:23;;;;;;;1.33;1.33;;;11.20;99.90;;;;;;5064701;28;20186;-58
2022/04/14 04:44:48;;;;;;;1.27;1.17;;;11.30;99.90;;;;;;5056258;28;20256;-58
2022/04/14 04:47:14;;;;;;;0.20;0.20;;;11.40;99.90;;;;;;5050281;28;20198;-58
2022/04/14 04:49:39;;;;;;;0.10;0.10;;;11.40;99.90;;;;;;5068447;28;20175;-58
2022/04/14 04:52:05;;;;;;;0.80;0.80;;;11.50;99.90;;;;;;5065201;28;20221;-59
2022/04/14 04:54:31;;;;;;;1.40;1.13;;;11.50;99.90;;;;;;5058818;28;20194;-57
2022/04/14 04:56:56;;;;;;;0.20;0.20;;;11.50;99.90;;;;;;5065893;28;20727;-58
2022/04/14 04:59:22;;;;;;;0.20;0.20;;;11.50;99.90;;;;;;5057643;28;20308;-60
2022/04/14 05:01:47;;;;;;;1.23;1.23;;;11.50;99.90;;;;;;5047281;28;20247;-59
2022/04/14 05:04:13;;;;;;;0.10;0.10;;;11.50;99.90;;;;;;5051355;28;20245;-58
2022/04/14 05:06:39;;;;;;;0.10;0.10;;;11.60;99.90;;;;;;5049391;28;20197;-59
2022/04/14 05:09:04;;;;;;;0.20;0.20;;;11.60;99.90;;;;;;5054924;28;20233;-58
2022/04/14 05:11:30;;;;;;;0.10;0.10;;;11.60;99.90;;;;;;5047102;28;20183;-58
2022/04/14 05:13:55;;;;;;;0.10;0.10;;;11.60;99.90;;;;;;5057500;28;20198;-57
2022/04/14 05:16:21;;;;;;;0.67;0.67;;;11.60;99.90;;;;;;5063529;28;20226;-58
2022/04/14 05:18:46;;;;;;;0.30;0.30;;;11.60;99.90;;;;;;5060756;28;20217;-59
2022/04/14 05:21:12;;;;;;;0.10;0.10;;;11.70;99.90;;;;;;5054280;28;20621;-59
2022/04/14 05:23:37;;;;;;;0.10;0.10;;;11.70;99.90;;;;;;5054495;28;20198;-59
2022/04/14 05:26:03;;;;;;;0.10;0.10;;;11.80;99.90;;;;;;5065790;28;20280;-59
2022/04/14 05:28:28;;;;;;;1.90;1.90;;;11.80;99.90;;;;;;5064616;28;20657;-59
2022/04/14 05:30:53;;;;;;;0.10;0.10;;;11.80;99.90;;;;;;5054703;28;20304;-58
2022/04/14 05:33:19;;;;;;;0.10;0.10;;;11.90;99.90;;;;;;5059376;28;20194;-58
2022/04/14 05:35:45;;;;;;;0.10;0.10;;;12.00;99.90;;;;;;5054699;28;20627;-58
2022/04/14 05:38:11;;;;;;;0.10;0.10;;;12.00;99.90;;;;;;5062343;28;20209;-57
2022/04/14 05:40:41;;;;;;;0.87;0.87;;;12.10;99.90;;;;;;5057993;28;20207;-59
2022/04/14 05:43:16;;;;;;;0.10;0.10;;;12.20;99.90;;;;;;5062183;28;20186;-60
2022/04/14 05:45:47;;;;;;;0.10;0.10;;;12.20;99.90;;;;;;5064871;28;20193;-57
2022/04/14 05:48:13;;;;;;;0.10;0.10;;;12.20;99.90;;;;;;5056418;28;20214;-59
2022/04/14 05:50:40;;;;;;;0.23;0.23;;;12.30;99.90;;;;;;5057161;28;20285;-59
2022/04/14 05:53:05;;;;;;;0.10;0.10;;;12.30;99.90;;;;;;5057889;28;20276;-59
2022/04/14 05:55:31;;;;;;;0.10;0.10;;;12.40;99.90;;;;;;5059429;28;20201;-59
2022/04/14 05:57:57;;;;;;;0.20;0.20;;;12.50;99.90;;;;;;5066841;28;20223;-60
2022/04/14 06:00:23;;;;;;;0.10;0.10;;;12.50;99.90;;;;;;5049930;28;20191;-60
2022/04/14 06:02:48;;;;;;;1.07;1.07;;;12.60;99.90;;;;;;5065676;28;20704;-60
2022/04/14 06:05:14;;;;;;;0.43;0.43;;;12.70;99.90;;;;;;5054729;28;20288;-59
2022/04/14 06:07:39;;;;;;;0.10;0.10;;;12.70;99.90;;;;;;5047144;28;20653;-60
2022/04/14 06:10:05;;;;;;;0.73;0.73;;;12.70;99.90;;;;;;5058849;28;20187;-60
2022/04/14 06:12:31;;;;;;;0.10;0.10;;;12.80;99.90;;;;;;5062369;28;20905;-60
2022/04/14 06:14:56;;;;;;;0.40;0.40;;;12.70;99.90;;;;;;5046270;28;20191;-60
2022/04/14 06:17:22;;;;;;;0.10;0.10;;;12.80;99.90;;;;;;5056295;28;20183;-59
2022/04/14 06:19:47;;;;;;;3.17;2.00;;;12.80;99.90;;;;;;5065997;28;20201;-59
2022/04/14 06:22:13;;;;;;;0.10;0.10;;;12.80;99.90;;;;;;5061715;28;20207;-59
2022/04/14 06:24:39;;;;;;;0.00;0.00;;;12.80;99.90;;;;;;5055357;28;20225;-58
2022/04/14 06:27:06;;;;;;;0.10;0.10;;;12.70;99.90;;;;;;5054084;28;20626;-60
2022/04/14 06:29:31;;;;;;;0.10;0.10;;;12.80;99.90;;;;;;5052412;28;20198;-60
2022/04/14 06:31:57;;;;;;;1.20;1.20;;;12.80;99.90;;;;;;5055133;28;20213;-60
2022/04/14 06:34:23;;;;;;;0.10;0.10;;;12.80;99.90;;;;;;5065359;28;20252;-59
2022/04/14 06:36:48;;;;;;;0.10;0.10;;;12.80;99.90;;;;;;5054741;28;20206;-59
2022/04/14 06:39:14;;;;;;;3.03;0.80;;;12.80;99.90;;;;;;5058718;28;20585;-59
2022/04/14 06:41:40;;;;;;;0.10;0.10;;;12.90;99.90;;;;;;5052834;28;20582;-59
2022/04/14 06:44:06;;;;;;;0.07;0.07;;;12.90;99.90;;;;;;5051426;28;20309;-58
2022/04/14 06:46:31;;;;;;;0.20;0.20;;;13.00;99.90;;;;;;5064353;28;20222;-59
2022/04/14 06:48:57;;;;;;;0.10;0.10;;;13.10;99.90;;;;;;5063846;28;20748;-60
2022/04/14 06:51:23;;;;;;;0.20;0.20;;;13.30;99.90;;;;;;5062744;28;20206;-59
2022/04/14 06:53:48;;;;;;;0.10;0.10;;;13.30;99.90;;;;;;5062751;28;20198;-59
2022/04/14 06:56:14;;;;;;;2.33;0.83;;;13.40;99.90;;;;;;5047404;28;20230;-58
2022/04/14 06:58:42;;;;;;;0.00;0.00;;;13.50;99.90;;;;;;5053026;28;20201;-58
2022/04/14 07:01:07;;;;;;;1.47;1.43;;;13.70;99.90;;;;;;5055296;28;20791;-60
2022/04/14 07:03:33;;;;;;;1.07;1.07;;;13.80;99.90;;;;;;5065534;28;20286;-58
2022/04/14 07:06:00;;;;;;;0.10;0.10;;;13.90;99.90;;;;;;5053852;28;20205;-59
2022/04/14 07:08:26;;;;;;;1.17;1.17;;;13.90;99.90;;;;;;5065409;28;20275;-59
2022/04/14 07:10:52;;;;;;;0.00;0.00;;;13.90;99.90;;;;;;5063681;28;20259;-57
2022/04/14 07:13:18;;;;;;;0.30;0.30;;;14.00;99.90;;;;;;5063139;28;20228;-58
2022/04/14 07:15:44;;;;;;;0.40;0.40;;;14.10;99.90;;;;;;5053506;28;20676;-58
2022/04/14 07:18:10;;;;;;;6.17;2.63;;;14.20;99.90;;;;;;5049249;28;20231;-58
2022/04/14 07:20:36;;;;;;;0.10;0.10;;;14.40;99.90;;;;;;5048002;28;20235;-58
2022/04/14 07:23:02;;;;;;;0.93;0.93;;;14.40;99.90;;;;;;5063271;28;20213;-58
2022/04/14 07:25:30;;;;;;;0.10;0.10;;;14.50;99.90;;;;;;5059281;28;20220;-59
2022/04/14 07:27:56;;;;;;;0.10;0.10;;;14.50;99.90;;;;;;5055550;28;20736;-58
2022/04/14 07:30:23;;;;;;;0.10;0.10;;;14.60;99.90;;;;;;5056060;28;20197;-58
2022/04/14 07:32:49;;;;;;;3.53;2.37;;;14.60;99.90;;;;;;5063518;28;20202;-58
2022/04/14 07:35:15;;;;;;;0.10;0.10;;;14.90;99.90;;;;;;5054421;28;20285;-58
2022/04/14 07:37:42;;;;;;;0.80;0.80;;;14.90;99.90;;;;;;5051249;28;20202;-58
2022/04/14 07:40:08;;;;;;;0.37;0.37;;;15.00;99.90;;;;;;5062193;28;20283;-59
2022/04/14 07:42:36;;;;;;;1.27;1.27;;;15.10;99.90;;;;;;5061300;28;20249;-59
2022/04/14 07:45:03;;;;;;;1.73;1.60;;;15.30;99.90;;;;;;5059781;28;20210;-59
2022/04/14 07:47:29;;;;;;;1.70;1.60;;;15.50;99.90;;;;;;5056597;28;20187;-59
2022/04/14 07:49:54;;;;;;;0.47;0.47;;;15.70;99.90;;;;;;5054280;28;20186;-60
2022/04/14 07:52:20;;;;;;;0.37;0.37;;;15.80;99.90;;;;;;5063031;28;20236;-58
2022/04/14 07:54:45;;;;;;;0.97;0.97;;;15.80;99.90;;;;;;5051579;28;20217;-59
2022/04/14 07:57:11;;;;;;;0.10;0.10;;;15.90;99.90;;;;;;5058245;28;20245;-58
2022/04/14 07:59:37;;;;;;;0.97;0.97;;;15.90;99.90;;;;;;5064985;28;20193;-59
2022/04/14 08:02:02;;;;;;;0.57;0.40;;;15.90;99.90;;;;;;5051719;28;20198;-58
2022/04/14 08:04:30;;;;;;;0.43;0.43;;;15.90;99.90;;;;;;5063481;28;20208;-58
2022/04/14 08:06:55;;;;;;;0.23;0.23;;;15.70;99.90;;;;;;5056427;28;20221;-59
2022/04/14 08:09:21;;;;;;;2.43;0.57;;;15.80;99.90;;;;;;5049115;28;20211;-59
2022/04/14 08:11:46;;;;;;;0.73;0.73;;;15.90;99.90;;;;;;5062793;28;20194;-59
2022/04/14 08:14:12;;;;;;;0.10;0.10;;;15.90;99.90;;;;;;5065203;28;20491;-59
2022/04/14 08:16:38;;;;;;;1.33;1.23;;;16.00;99.90;;;;;;5046438;28;20195;-60
2022/04/14 08:19:03;;;;;;;1.70;0.73;;;16.00;99.90;;;;;;5048468;28;20753;-59
2022/04/14 08:21:29;;;;;;;0.10;0.10;;;16.10;99.90;;;;;;5061317;28;20194;-59
2022/04/14 08:23:54;;;;;;;0.43;0.43;;;16.10;99.90;;;;;;5052041;28;20218;-59
2022/04/14 08:26:21;;;;;;;1.17;1.17;;;16.10;99.90;;;;;;5056793;28;20238;-59
2022/04/14 08:28:47;;;;;;;3.83;1.17;;;16.20;99.90;;;;;;5052540;28;20195;-59
2022/04/14 08:31:14;;;;;;;0.33;0.33;;;16.20;99.90;;;;;;5064755;28;20198;-59
2022/04/14 08:33:40;;;;;;;0.40;0.40;;;16.30;99.90;;;;;;5060231;28;20296;-58
2022/04/14 08:36:12;;;;;;;0.67;0.67;;;16.30;99.90;;;;;;5054019;28;20370;-59
2022/04/14 08:38:41;;;;;;;0.10;0.10;;;16.40;99.90;;;;;;5052315;28;20241;-59
2022/04/14 08:41:08;;;;;;;2.73;1.87;;;16.40;99.90;;;;;;5053757;28;20210;-59
2022/04/14 08:43:35;;;;;;;1.07;1.07;;;16.60;99.90;;;;;;5062157;28;20222;-60
2022/04/14 08:46:03;;;;;;;1.33;1.33;;;16.80;99.90;;;;;;5049984;28;20202;-58
2022/04/14 08:48:29;;;;;;;0.53;0.53;;;17.00;99.90;;;;;;5043849;28;20540;-59
2022/04/14 08:50:55;;;;;;;1.80;0.50;;;17.10;99.90;;;;;;5056550;28;20203;-59
2022/04/14 08:53:26;;;;;;;0.83;0.63;;;17.20;99.90;;;;;;5046921;28;20234;-59
2022/04/14 08:55:52;;;;;;;2.03;1.93;;;17.40;99.90;;;;;;5052568;28;20220;-59
2022/04/14 08:58:19;;;;;;;2.70;2.60;;;17.60;99.90;;;;;;5047995;28;20306;-60
2022/04/14 09:00:45;;;;;;;1.03;1.03;;;17.60;99.90;;;;;;5056128;28;20200;-59
2022/04/14 09:03:18;;;;;;;0.70;0.70;;;17.50;99.90;;;;;;5045783;28;20210;-60
2022/04/14 09:05:43;;;;;;;0.30;0.30;;;17.20;99.90;;;;;;5044607;28;20360;-59
2022/04/14 09:08:09;;;;;;;1.83;1.50;;;17.20;99.90;;;;;;5061752;28;20203;-60
2022/04/14 09:10:39;;;;;;;3.43;1.33;;;17.10;99.90;;;;;;5050595;28;20188;-58
2022/04/14 09:13:05;;;;;;;0.53;0.53;;;17.10;99.90;;;;;;5044579;28;20193;-58
2022/04/14 09:15:30;;;;;;;0.30;0.23;;;17.20;99.90;;;;;;5054275;28;20192;-58
2022/04/14 09:17:56;;;;;;;2.17;1.53;;;17.10;99.90;;;;;;5054994;28;20258;-58
2022/04/14 09:20:34;;;;;;;0.03;0.03;;;17.10;99.90;;;;;;5055156;28;20198;-58
2022/04/14 09:23:18;;;;;;;0.20;0.20;;;17.10;99.90;;;;;;5049355;28;20721;-59
2022/04/14 09:25:44;;;;;;;1.50;1.30;;;17.20;99.90;;;;;;5055181;28;20214;-58
2022/04/14 09:28:18;;;;;;;0.50;0.47;;;17.10;99.90;;;;;;5058882;28;20231;-57
2022/04/14 09:31:03;;;;;;;0.33;0.33;;;17.10;99.90;;;;;;5062796;28;20210;-58
2022/04/14 09:33:30;;;;;;;0.40;0.33;;;17.00;99.90;;;;;;5066011;28;20400;-59
2022/04/14 09:36:17;;;;;;;0.10;0.10;;;16.90;99.90;;;;;;5052397;28;20207;-59
2022/04/14 09:39:13;;;;;;;0.10;0.10;;;16.80;99.90;;;;;;5059101;28;20198;-58
2022/04/14 09:41:40;;;;;;;0.37;0.37;;;16.60;99.90;;;;;;5056668;28;20203;-58
2022/04/14 09:44:09;;;;;;;0.50;0.30;;;16.60;99.90;;;;;;5064730;28;20219;-58
2022/04/14 09:46:37;;;;;;;0.50;0.50;;;16.50;99.90;;;;;;5066238;28;20195;-57
2022/04/14 09:49:10;;;;;;;0.63;0.63;;;16.40;99.90;;;;;;5064707;28;20549;-58
2022/04/14 09:51:38;;;;;;;0.30;0.27;;;16.40;99.90;;;;;;5061502;28;20232;-59
2022/04/14 09:54:15;;;;;;;0.23;0.23;;;16.40;99.90;;;;;;5053928;28;20286;-58
2022/04/14 09:56:52;;;;;;;0.30;0.30;;;16.40;99.90;;;;;;5052623;28;20207;-59
2022/04/14 09:59:21;;;;;;;0.40;0.40;;;16.40;99.90;;;;;;5056602;28;20194;-59
2022/04/14 10:01:48;;;;;;;0.87;0.87;;;16.50;99.90;;;;;;5057225;28;20202;-60
2022/04/14 10:04:31;;;;;;;0.10;0.10;;;16.60;99.90;;;;;;5053804;28;20612;-57
2022/04/14 10:07:08;;;;;;;0.30;0.30;;;16.60;99.90;;;;;;5067020;28;20178;-59
2022/04/14 10:09:35;;;;;;;0.10;0.10;;;16.40;99.90;;;;;;5047774;28;20255;-59
2022/04/14 10:12:02;;;;;;;0.80;0.80;;;16.40;99.90;;;;;;5050097;28;20194;-59
2022/04/14 10:14:28;;;;;;;0.97;0.97;;;16.40;99.90;;;;;;5058756;28;20202;-59
2022/04/14 10:16:54;;;;;;;2.27;1.37;;;16.30;99.90;;;;;;5061900;28;20730;-59
2022/04/14 10:19:20;;;;;;;0.93;0.93;;;16.40;99.90;;;;;;5053570;28;20263;-56
2022/04/14 10:21:46;;;;;;;2.23;2.13;;;16.40;99.90;;;;;;5066648;28;20194;-60
2022/04/14 10:24:12;;;;;;;0.10;0.10;;;16.30;99.90;;;;;;5064775;28;20211;-61
2022/04/14 10:26:38;;;;;;;0.47;0.47;;;16.40;99.90;;;;;;5064659;28;20205;-60
2022/04/14 10:29:06;;;;;;;2.70;1.17;;;16.60;99.90;;;;;;5050865;28;20236;-60
2022/04/14 10:31:35;;;;;;;0.30;0.30;;;16.60;99.90;;;;;;5066101;28;20203;-62
2022/04/14 10:34:04;;;;;;;0.40;0.40;;;16.60;99.90;;;;;;5062973;28;20725;-60
2022/04/14 10:36:38;;;;;;;0.10;0.10;;;16.60;99.90;;;;;;5066304;28;20220;-60
2022/04/14 10:39:04;;;;;;;0.10;0.10;;;16.80;99.90;;;;;;5064016;28;20295;-60
2022/04/14 10:41:34;;;;;;;1.73;1.30;;;16.90;99.90;;;;;;5065641;28;20215;-61
2022/04/14 10:44:01;;;;;;;0.10;0.10;;;16.90;99.90;;;;;;5059064;28;20566;-61
2022/04/14 10:46:32;;;;;;;0.23;0.23;;;16.80;99.90;;;;;;5063932;28;20500;-62
2022/04/14 10:49:12;;;;;;;1.70;0.83;;;16.80;99.90;;;;;;5057512;28;20201;-60
2022/04/14 10:51:39;;;;;;;1.27;1.00;;;16.70;99.90;;;;;;5051743;28;20220;-60
2022/04/14 10:54:09;;;;;;;0.93;0.93;;;16.40;99.90;;;;;;5061579;28;20556;-60
2022/04/14 10:56:34;;;;;;;0.60;0.60;;;16.40;99.90;;;;;;5053055;28;20191;-63
2022/04/14 10:59:01;;;;;;;0.10;0.10;;;16.10;99.90;;;;;;5064449;28;20252;-62
2022/04/14 11:01:51;;;;;;;0.53;0.53;;;15.90;99.90;;;;;;5052432;28;20185;-63
2022/04/14 11:04:32;;;;;;;0.93;0.90;;;15.90;99.90;;;;;;5063963;28;20224;-61
2022/04/14 11:07:10;;;;;;;3.43;1.67;;;15.90;99.90;;;;;;5065813;28;20625;-62
2022/04/14 11:09:38;;;;;;;0.40;0.37;;;15.80;99.90;;;;;;5063844;28;20202;-63
2022/04/14 11:12:05;;;;;;;0.00;0.00;;;15.80;99.90;;;;;;5062442;28;20211;-64
2022/04/14 11:14:43;;;;;;;0.80;0.80;;;15.70;99.90;;;;;;5061313;28;20632;-63
2022/04/14 11:17:36;;;;;;;0.73;0.73;;;15.80;99.90;;;;;;5062152;28;20194;-64
2022/04/14 11:20:14;;;;;;;0.30;0.30;;;15.70;99.90;;;;;;5063876;28;20263;-62
2022/04/14 11:23:03;;;;;;;0.00;0.00;;;15.60;99.90;;;;;;5057049;28;20204;-64
2022/04/14 11:25:48;;;;;;;0.00;0.00;;;15.40;99.90;;;;;;5045383;28;20291;-64
2022/04/14 11:28:23;;;;;;;1.13;1.10;;;15.30;99.90;;;;;;5059108;28;20190;-63
2022/04/14 11:30:49;;;;;;;0.67;0.67;;;15.30;99.90;;;;;;5047835;28;20223;-62
2022/04/14 11:33:21;;;;;;;0.10;0.10;;;15.30;99.90;;;;;;5057167;28;20269;-59
2022/04/14 11:35:47;;;;;;;0.77;0.63;;;15.20;99.90;;;;;;5058789;28;20277;-60
2022/04/14 11:38:51;;;;;;;0.87;0.87;;;15.20;99.90;;;;;;5056153;28;20291;-62
2022/04/14 11:41:36;;;;;;;0.20;0.20;;;15.30;99.90;;;;;;5063356;28;20198;-61
2022/04/14 11:44:17;;;;;;;0.43;0.43;;;15.30;99.90;;;;;;5059698;28;20695;-59
2022/04/14 11:46:47;;;;;;;4.23;0.97;;;15.30;99.90;;;;;;5060735;28;20743;-63
2022/04/14 11:49:15;;;;;;;0.20;0.20;;;15.20;99.90;;;;;;5063230;28;20174;-60
2022/04/14 11:51:52;;;;;;;0.30;0.30;;;15.20;99.90;;;;;;5061901;28;20250;-60
2022/04/14 11:54:29;;;;;;;0.87;0.87;;;15.20;99.90;;;;;;5061141;28;20181;-61
2022/04/14 11:57:09;;;;;;;1.03;1.03;;;15.00;99.90;;;;;;5057081;28;20267;-60
2022/04/14 11:59:46;;;;;;;0.10;0.10;;;14.90;99.90;;;;;;5064325;28;20609;-61
2022/04/14 12:02:18;;;;;;;0.50;0.50;;;14.80;99.90;;;;;;5052064;28;20259;-61
2022/04/14 12:04:49;;;;;;;0.10;0.10;;;14.60;99.90;;;;;;5061422;28;20708;-61
2022/04/14 12:07:15;;;;;;;0.83;0.83;;;14.50;99.90;;;;;;5054886;28;21023;-62
2022/04/14 12:09:42;;;;;;;1.80;1.70;;;14.50;99.90;;;;;;5064836;28;20205;-62
2022/04/14 12:12:12;;;;;;;0.33;0.33;;;14.50;99.90;;;;;;5051405;28;20201;-70
2022/04/14 12:14:46;;;;;;;0.80;0.80;;;14.40;99.90;;;;;;5060555;28;20206;-59
2022/04/14 12:17:12;;;;;;;0.30;0.30;;;14.40;99.90;;;;;;5060410;28;20198;-59
2022/04/14 12:19:46;;;;;;;1.40;1.30;;;14.40;99.90;;;;;;5058853;28;20195;-61
2022/04/14 12:22:12;;;;;;;1.33;1.27;;;14.50;99.90;;;;;;5044068;28;20265;-61
2022/04/14 12:24:39;;;;;;;0.10;0.10;;;14.50;99.90;;;;;;5052831;28;20570;-61
2022/04/14 12:27:06;;;;;;;0.10;0.10;;;14.40;99.90;;;;;;5077115;22;20237;-61
2022/04/14 12:29:32;;;;;;;0.93;0.93;;;14.40;99.90;;;;;;5061029;28;20197;-63
2022/04/14 12:32:09;;;;;;;0.37;0.37;;;14.30;99.90;;;;;;5066883;28;20340;-61
2022/04/14 12:34:35;;;;;;;1.03;0.93;;;14.20;99.90;;;;;;5080838;28;20236;-61
2022/04/14 12:37:14;;;;;;;0.67;0.50;;;14.00;99.90;;;;;;5066356;28;20693;-61
2022/04/14 12:39:59;;;;;;;1.17;0.80;;;13.90;99.90;;;;;;5072146;28;20200;-61
2022/04/14 12:42:27;;;;;;;0.10;0.10;;;13.70;99.90;;;;;;5063856;28;20201;-63
2022/04/14 12:44:53;;;;;;;0.53;0.53;;;13.50;99.90;;;;;;5069463;28;20201;-60
2022/04/14 12:47:28;;;;;;;1.13;1.07;;;13.30;99.90;;;;;;5074761;28;20205;-62
2022/04/14 12:49:53;;;;;;;0.73;0.33;;;13.10;99.90;;;;;;5073766;28;20269;-60